^^
Datos históricos de la estación: Murcia-Puente Tocinos
Diario Informe para Octubre 25, 2021 Unidades:  Métrico    Ingés   Ambas
Diario Semanal Mensual Anual
  Máxima: Mínima: Promedio:
Temperatura: 23.3 °C 13.2 °C 17.5 °C
Punto de rocio: 14.3 °C 11.4 °C 13 °C
Humedad: 91% 49.7% 76%
Velocidad viento: 14km/h 0km/h 5.3km/h
Racha viento: 25.9km/h - -
Viento- - SSE
Presión: 1021.8 hPa 1017.6 hPa -
Precipitación: 0.0 mm    
 
 
Tabla de datos para Octubre 25, 2021
Hora Temperatura Punto de rocio Presión Viento Velocidad viento Racha viento Humedad Intensidad lluvia(por hora) Nubes
00:04 16.7 °C 14.3 °C 1021.5 hPa Calm   7.4 km/h 86% 0.0 mm
00:09 16.7 °C 14.3 °C 1021.6 hPa SE 1 km/h 6.4 km/h 86% 0.0 mm
00:14 16.6 °C 14.1 °C 1021.6 hPa SE 2.9 km/h 7.4 km/h 85.3% 0.0 mm
00:19 16.6 °C 14.2 °C 1021.6 hPa SE 3 km/h 5.6 km/h 86% 0.0 mm
00:24 16.6 °C 14.2 °C 1021.6 hPa SE 3.2 km/h 6.4 km/h 86% 0.0 mm
00:29 16.6 °C 14.2 °C 1021.6 hPa Sur 3.5 km/h 7.6 km/h 86% 0.0 mm
00:34 16.6 °C 14.2 °C 1021.6 hPa Sur 3.9 km/h 7.4 km/h 86% 0.0 mm
00:39 16.6 °C 14.2 °C 1021.6 hPa Sur 3.7 km/h 5.6 km/h 86% 0.0 mm
00:44 16.6 °C 14.2 °C 1021.6 hPa Sur 3.2 km/h 7.6 km/h 86% 0.0 mm
00:49 16.6 °C 14.2 °C 1021.6 hPa Sur 3.5 km/h 5.6 km/h 86% 0.0 mm
00:54 16.6 °C 14.2 °C 1021.6 hPa Sur 3.9 km/h 5.6 km/h 86% 0.0 mm
00:59 16.5 °C 14.2 °C 1021.6 hPa Sur 3.5 km/h 3.7 km/h 86% 0.0 mm
01:04 16.5 °C 14.2 °C 1021.6 hPa Sur 2.9 km/h   86% 0.0 mm
01:09 16.4 °C 14.1 °C 1021.6 hPa Sur 1.8 km/h   85.8% 0.0 mm
01:14 16.3 °C 13.8 °C 1021.6 hPa Calm     85% 0.0 mm
01:19 16.2 °C 13.6 °C 1021.6 hPa Calm     85% 0.0 mm
01:24 16.1 °C 13.7 °C 1021.6 hPa Calm     86% 0.0 mm
01:29 15.9 °C 13.7 °C 1021.6 hPa Calm     86.5% 0.0 mm
01:34 15.9 °C 13.7 °C 1021.6 hPa Calm     87% 0.0 mm
01:39 15.9 °C 13.7 °C 1021.6 hPa Calm     87% 0.0 mm
01:44 15.9 °C 13.7 °C 1021.4 hPa Calm     87% 0.0 mm
01:49 15.8 °C 13.7 °C 1021.4 hPa Calm     87.2% 0.0 mm
01:54 15.8 °C 13.8 °C 1021.4 hPa Calm   4.7 km/h 88% 0.0 mm
01:59 15.7 °C 13.6 °C 1021.3 hPa Calm   4.7 km/h 87.1% 0.0 mm
02:04 15.7 °C 13.5 °C 1021.3 hPa Calm   5.8 km/h 87% 0.0 mm
02:09 15.6 °C 13.4 °C 1021.4 hPa Sur 1.1 km/h 7.4 km/h 87% 0.0 mm
02:14 15.4 °C 13.3 °C 1021.4 hPa Sur 2.9 km/h 3.9 km/h 87% 0.0 mm
02:19 15.4 °C 13.4 °C 1021.4 hPa Sur 2.9 km/h 3.9 km/h 87.7% 0.0 mm
02:24 15.4 °C 13.4 °C 1021.4 hPa Sur 2.9 km/h 4.7 km/h 88% 0.0 mm
02:29 15.3 °C 13.3 °C 1021.2 hPa Sur 1.8 km/h 3.7 km/h 88% 0.0 mm
02:34 15.3 °C 13.3 °C 1021.2 hPa Calm     88% 0.0 mm
02:39 15.2 °C 13.3 °C 1021.2 hPa Calm   3.7 km/h 88% 0.0 mm
02:44 15.2 °C 13.2 °C 1021.2 hPa Calm   5.6 km/h 88% 0.0 mm
02:49 15.3 °C 13.5 °C 1021.2 hPa Sur 1 km/h 5.6 km/h 88.8% 0.0 mm
02:54 15.3 °C 13.5 °C 1021.2 hPa Sur 2.9 km/h 4.7 km/h 89% 0.0 mm
02:59 15.3 °C 13.5 °C 1021.2 hPa Sur 3 km/h 5.6 km/h 89% 0.0 mm
03:04 15.3 °C 13.5 °C 1021.2 hPa Sur 3.2 km/h 5.8 km/h 89% 0.0 mm
03:09 15.3 °C 13.5 °C 1021.2 hPa SSO 3.2 km/h 7.4 km/h 89% 0.0 mm
03:14 15.2 °C 13.3 °C 1021.0 hPa SSE 3.2 km/h 7.6 km/h 88.3% 0.0 mm
03:19 15.2 °C 13.3 °C 1021.0 hPa Sur 3.9 km/h 7.6 km/h 88.6% 0.0 mm
03:24 15.1 °C 13.3 °C 1021.0 hPa Sur 5 km/h 7.4 km/h 89% 0.0 mm
03:29 15.1 °C 13.3 °C 1021.0 hPa SE 5 km/h 8.4 km/h 89% 0.0 mm
03:34 15.1 °C 13.3 °C 1021.0 hPa SE 5 km/h 7.6 km/h 89% 0.0 mm
03:39 15 °C 13.2 °C 1021.0 hPa SE 4.9 km/h 8.7 km/h 89% 0.0 mm
03:44 14.9 °C 13.1 °C 1020.7 hPa SSE 4.7 km/h 9.3 km/h 89% 0.0 mm
03:49 14.8 °C 13 °C 1020.7 hPa Sur 5.1 km/h 9.5 km/h 89% 0.0 mm
03:54 14.8 °C 13 °C 1020.7 hPa SSO 5.8 km/h 10 km/h 89% 0.0 mm
03:59 14.9 °C 13.2 °C 1020.7 hPa SSO 5.5 km/h 7.4 km/h 89.5% 0.0 mm
04:04 14.9 °C 13.3 °C 1020.7 hPa SSO 5 km/h 7.4 km/h 90% 0.0 mm
04:09 14.9 °C 13.3 °C 1020.7 hPa SO 5 km/h 7.6 km/h 90% 0.0 mm
04:14 14.9 °C 13.2 °C 1020.7 hPa OSO 5 km/h 7.4 km/h 89.2% 0.0 mm
04:19 14.8 °C 13.1 °C 1020.7 hPa OSO 4.9 km/h 7.4 km/h 89% 0.0 mm
04:24 14.8 °C 13 °C 1020.7 hPa OSO 4.7 km/h 7.4 km/h 89% 0.0 mm
04:29 14.7 °C 13 °C 1020.5 hPa SO 4.1 km/h 6.9 km/h 89.6% 0.0 mm
04:34 14.7 °C 13.1 °C 1020.5 hPa Sur 3.2 km/h 7.4 km/h 90% 0.0 mm
04:39 14.7 °C 13.1 °C 1020.5 hPa SE 3.2 km/h 5.6 km/h 90% 0.0 mm
04:44 14.7 °C 13 °C 1020.4 hPa SE 3.2 km/h 7.4 km/h 89.5% 0.0 mm
04:49 14.6 °C 12.8 °C 1020.4 hPa SE 3.1 km/h 7.4 km/h 89% 0.0 mm
04:54 14.4 °C 12.7 °C 1020.4 hPa SSE 2.9 km/h 7.4 km/h 89% 0.0 mm
04:59 14.4 °C 12.7 °C 1020.4 hPa SSO 3.6 km/h 8.4 km/h 89.6% 0.0 mm
05:04 14.4 °C 12.8 °C 1020.4 hPa SO 4.7 km/h 9.3 km/h 90% 0.0 mm
05:09 14.4 °C 12.8 °C 1020.4 hPa SO 4.8 km/h 7.6 km/h 90% 0.0 mm
05:14 14.4 °C 12.8 °C 1020.4 hPa SSO 5 km/h 7.4 km/h 90% 0.0 mm
05:19 14.4 °C 12.8 °C 1020.4 hPa SSO 5 km/h 10.3 km/h 90% 0.0 mm
05:24 14.4 °C 12.8 °C 1020.4 hPa SSO 5 km/h 11.1 km/h 90% 0.0 mm
05:29 14.4 °C 12.8 °C 1020.4 hPa Sur 5.7 km/h 10 km/h 90% 0.0 mm
05:34 14.4 °C 12.7 °C 1020.4 hPa SSE 6.9 km/h 9.3 km/h 89.8% 0.0 mm
05:39 14.3 °C 12.5 °C 1020.4 hPa SSE 6.7 km/h 11.1 km/h 89% 0.0 mm
05:44 14.2 °C 12.3 °C 1020.3 hPa SSE 6.4 km/h 11.9 km/h 89% 0.0 mm
05:49 13.8 °C 12.1 °C 1020.3 hPa SSE 7.1 km/h 11.1 km/h 89% 0.0 mm
05:54 13.7 °C 12.1 °C 1020.3 hPa SSE 8.4 km/h 9.5 km/h 89.8% 0.0 mm
05:59 13.6 °C 12 °C 1020.2 hPa Sur 7.8 km/h 10.3 km/h 90% 0.0 mm
06:04 13.5 °C 12 °C 1020.2 hPa Sur 6.9 km/h 11.1 km/h 90.6% 0.0 mm
06:09 13.5 °C 12.1 °C 1020.4 hPa Sur 6.9 km/h 10 km/h 91% 0.0 mm
06:14 13.6 °C 12.1 °C 1020.4 hPa SSO 6.9 km/h 9.5 km/h 91% 0.0 mm
06:19 13.6 °C 12.2 °C 1020.4 hPa SO 6.7 km/h 11.1 km/h 91% 0.0 mm
06:24 13.7 °C 12.3 °C 1020.4 hPa SO 6.4 km/h 10 km/h 91% 0.0 mm
06:29 13.7 °C 12.3 °C 1020.4 hPa SO 6.4 km/h 11.1 km/h 91% 0.0 mm
06:34 13.7 °C 12.3 °C 1020.4 hPa SSO 6.4 km/h 11.1 km/h 90.8% 0.0 mm
06:39 13.7 °C 12.1 °C 1020.4 hPa SSO 6.6 km/h 10 km/h 90% 0.0 mm
06:44 13.7 °C 12.1 °C 1020.3 hPa SSO 6.9 km/h 9.3 km/h 90% 0.0 mm
06:49 13.7 °C 12.1 °C 1020.3 hPa SO 6.5 km/h 9.3 km/h 90% 0.0 mm
06:54 13.7 °C 12.1 °C 1020.4 hPa SO 5.8 km/h 11.1 km/h 90% 0.0 mm
06:59 13.7 °C 12 °C 1020.4 hPa OSO 5.8 km/h 11.9 km/h 89.1% 0.0 mm
07:04 13.7 °C 11.9 °C 1020.4 hPa SO 5.8 km/h 8.4 km/h 89% 0.0 mm
07:09 13.7 °C 11.9 °C 1020.5 hPa SO 5.8 km/h 8.4 km/h 89% 0.0 mm
07:14 13.6 °C 11.8 °C 1020.5 hPa SO 5.8 km/h 9.3 km/h 89% 0.0 mm
07:19 13.6 °C 11.8 °C 1020.5 hPa SO 5.8 km/h 8.4 km/h 89% 0.0 mm
07:24 13.6 °C 11.8 °C 1020.6 hPa SO 5.8 km/h 7.6 km/h 89% 0.0 mm
07:29 13.6 °C 11.8 °C 1020.6 hPa SO 5.5 km/h 10 km/h 89% 0.0 mm
07:34 13.6 °C 11.8 °C 1020.6 hPa SO 5 km/h 7.6 km/h 89% 0.0 mm
07:39 13.6 °C 11.8 °C 1020.6 hPa SO 4.9 km/h 7.4 km/h 89% 0.0 mm
07:44 13.6 °C 11.8 °C 1020.5 hPa SSO 4.7 km/h 9.3 km/h 89% 0.0 mm
07:49 13.6 °C 11.8 °C 1020.5 hPa SSO 5.1 km/h 9.5 km/h 89% 0.0 mm
07:54 13.6 °C 11.8 °C 1020.6 hPa SSO 5.8 km/h 7.4 km/h 89% 0.0 mm
07:59 13.6 °C 11.8 °C 1020.6 hPa SO 5.4 km/h 7.6 km/h 89% 0.0 mm
08:04 13.6 °C 11.8 °C 1020.6 hPa SO 4.7 km/h 7.4 km/h 89% 0.0 mm
08:09 13.6 °C 11.8 °C 1020.6 hPa SSO 4.7 km/h 7.4 km/h 89% 0.0 mm
08:14 13.6 °C 11.8 °C 1020.6 hPa SSO 4.7 km/h 5.6 km/h 89% 0.0 mm
08:19 13.6 °C 11.8 °C 1020.6 hPa SO 4.2 km/h 5.8 km/h 89% 0.0 mm
08:24 13.6 °C 11.8 °C 1020.6 hPa SO 3.2 km/h 5.8 km/h 89% 0.0 mm
08:29 13.5 °C 11.8 °C 1020.6 hPa SSO 3.2 km/h 7.6 km/h 89% 0.0 mm
08:34 13.5 °C 11.7 °C 1020.6 hPa SSO 3.2 km/h 7.4 km/h 89% 0.0 mm
08:39 13.5 °C 11.7 °C 1020.6 hPa SE 3.2 km/h 7.4 km/h 89% 0.0 mm
08:44 13.4 °C 11.6 °C 1020.6 hPa SE 3.2 km/h 7.4 km/h 89% 0.0 mm
08:49 13.3 °C 11.6 °C 1020.6 hPa SE 3.8 km/h 7.4 km/h 89% 0.0 mm
08:54 13.3 °C 11.5 °C 1020.8 hPa SSE 4.7 km/h 5.8 km/h 89% 0.0 mm
08:59 13.2 °C 11.4 °C 1020.8 hPa SE 4.3 km/h 7.4 km/h 89% 0.0 mm
09:04 13.2 °C 11.4 °C 1020.8 hPa SE 3.9 km/h 3.9 km/h 89% 0.0 mm
09:09 13.3 °C 11.5 °C 1020.9 hPa SSE 3.5 km/h 4.7 km/h 89% 0.0 mm
09:14 13.3 °C 11.7 °C 1020.9 hPa SSE 2.9 km/h 3.9 km/h 89.9% 0.0 mm
09:19 13.5 °C 11.8 °C 1020.9 hPa SSO 2.9 km/h 7.4 km/h 89.6% 0.0 mm
09:24 13.6 °C 11.8 °C 1021.1 hPa SSO 2.9 km/h 9.3 km/h 89% 0.0 mm
09:29 13.7 °C 11.8 °C 1021.1 hPa SSO 3.6 km/h 8.7 km/h 88.3% 0.0 mm
09:34 13.8 °C 11.8 °C 1021.1 hPa SSO 5 km/h 7.6 km/h 88% 0.0 mm
09:39 13.9 °C 11.8 °C 1021.3 hPa Sur 5.3 km/h 10 km/h 87% 0.0 mm
09:44 14.1 °C 11.9 °C 1021.3 hPa SSE 5.8 km/h 10.3 km/h 86.8% 0.0 mm
09:49 14.1 °C 11.8 °C 1021.3 hPa Sur 6.2 km/h 11.9 km/h 86% 0.0 mm
09:54 14.2 °C 11.8 °C 1021.5 hPa Sur 6.9 km/h 11.1 km/h 85.6% 0.0 mm
09:59 14.3 °C 11.9 °C 1021.5 hPa SSE 7.2 km/h 10 km/h 85.3% 0.0 mm
10:04 14.3 °C 11.8 °C 1021.5 hPa SSE 7.6 km/h 11.1 km/h 85% 0.0 mm
10:09 14.4 °C 11.9 °C 1021.6 hPa SSO 7.3 km/h 11.1 km/h 85% 0.0 mm
10:14 14.4 °C 11.9 °C 1021.6 hPa SSO 6.9 km/h 10 km/h 84.8% 0.0 mm
10:19 14.6 °C 11.9 °C 1021.6 hPa SSO 6.7 km/h 11.9 km/h 84% 0.0 mm
10:24 14.6 °C 11.9 °C 1021.7 hPa SSO 6.4 km/h 11.9 km/h 84% 0.0 mm
10:29 14.6 °C 12 °C 1021.7 hPa SSO 7.3 km/h 13 km/h 84% 0.0 mm
10:34 14.8 °C 12.1 °C 1021.7 hPa SSO 8.7 km/h 13 km/h 84% 0.0 mm
10:39 14.9 °C 12.2 °C 1021.7 hPa SSO 7.9 km/h 8.4 km/h 84% 0.0 mm
10:44 15.2 °C 12.3 °C 1021.7 hPa SSO 6.4 km/h 10 km/h 83.1% 0.0 mm
10:49 15.3 °C 12.4 °C 1021.7 hPa SO 5.9 km/h 12.2 km/h 82.5% 0.0 mm
10:54 15.4 °C 12.4 °C 1021.8 hPa SO 5 km/h 13 km/h 82% 0.0 mm
10:59 15.6 °C 12.6 °C 1021.8 hPa SO 5.3 km/h 9.5 km/h 82% 0.0 mm
11:04 15.7 °C 12.5 °C 1021.8 hPa SSO 5.8 km/h 11.1 km/h 81.5% 0.0 mm
11:09 15.8 °C 12.5 °C 1021.8 hPa SO 6.2 km/h 11.9 km/h 81% 0.0 mm
11:14 15.9 °C 12.7 °C 1021.7 hPa SO 6.9 km/h 14 km/h 81% 0.0 mm
11:19 16.1 °C 12.7 °C 1021.7 hPa SSO 6.9 km/h 14.8 km/h 80.4% 0.0 mm
11:24 16.2 °C 12.8 °C 1021.7 hPa SSO 6.9 km/h 11.1 km/h 80.5% 0.0 mm
11:29 16.3 °C 12.8 °C 1021.7 hPa SO 6.7 km/h 10 km/h 80% 0.0 mm
11:34 16.4 °C 12.8 °C 1021.7 hPa SO 6.4 km/h 13 km/h 79.4% 0.0 mm
11:39 16.5 °C 12.8 °C 1021.7 hPa OSO 6.6 km/h 10.3 km/h 79% 0.0 mm
11:44 16.7 °C 13.1 °C 1021.5 hPa SO 6.9 km/h 11.1 km/h 79.6% 0.0 mm
11:49 16.8 °C 13 °C 1021.5 hPa OSO 6.5 km/h 9.5 km/h 77.9% 0.0 mm
11:54 17 °C 13 °C 1021.5 hPa SO 5.8 km/h 9.3 km/h 77.6% 0.0 mm
11:59 17.2 °C 13.1 °C 1021.5 hPa SSO 5.5 km/h 10.3 km/h 77% 0.0 mm
12:04 17.4 °C 13.1 °C 1021.5 hPa SO 5 km/h 11.1 km/h 76% 0.0 mm
12:09 17.7 °C 13.3 °C 1021.5 hPa SO 5.3 km/h 13 km/h 75.4% 0.0 mm
12:14 17.7 °C 13.2 °C 1021.4 hPa OSO 5.8 km/h 13 km/h 75% 0.0 mm
12:19 17.7 °C 13.3 °C 1021.4 hPa OSO 5.8 km/h 11.1 km/h 75% 0.0 mm
12:24 17.9 °C 13.3 °C 1021.4 hPa SE 5.8 km/h 7.6 km/h 74.5% 0.0 mm
12:29 18.2 °C 13.3 °C 1021.3 hPa North 5.4 km/h 10 km/h 73.3% 0.0 mm
12:34 18.3 °C 13.4 °C 1021.3 hPa OSO 4.7 km/h 11.1 km/h 72.8% 0.0 mm
12:39 18.4 °C 13.3 °C 1021.3 hPa OSO 4.8 km/h 9.3 km/h 72% 0.0 mm
12:44 18.4 °C 13.3 °C 1021.3 hPa OSO 5 km/h 9.3 km/h 72% 0.0 mm
12:49 18.6 °C 13.5 °C 1021.3 hPa Oeste 4.9 km/h 7.4 km/h 72.2% 0.0 mm
12:54 18.8 °C 13.6 °C 1021.3 hPa SO 4.7 km/h 7.6 km/h 71.8% 0.0 mm
12:59 19.2 °C 13.7 °C 1021.2 hPa ONO 4.3 km/h 7.4 km/h 70.8% 0.0 mm
13:04 19.3 °C 13.7 °C 1021.2 hPa Oeste 3.9 km/h 7.6 km/h 69.9% 0.0 mm
13:09 19.4 °C 13.6 °C 1021.2 hPa ONO 3.9 km/h 8.4 km/h 69% 0.0 mm
13:14 19.6 °C 13.7 °C 1021.1 hPa SSO 3.9 km/h 8.4 km/h 69% 0.0 mm
13:19 19.7 °C 13.7 °C 1021.1 hPa SSO 4.3 km/h 7.6 km/h 68.7% 0.0 mm
13:24 19.8 °C 13.7 °C 1021.1 hPa ONO 5 km/h 9.5 km/h 67.9% 0.0 mm
13:29 19.9 °C 13.6 °C 1020.8 hPa Oeste 4.6 km/h 7.6 km/h 67% 0.0 mm
13:34 20.2 °C 13.8 °C 1020.8 hPa OSO 3.9 km/h 7.4 km/h 66.8% 0.0 mm
13:39 20.4 °C 13.7 °C 1020.8 hPa SO 3.9 km/h 9.5 km/h 65.6% 0.0 mm
13:44 20.5 °C 13.6 °C 1020.5 hPa SSE 3.9 km/h 9.3 km/h 64.7% 0.0 mm
13:49 20.7 °C 13.6 °C 1020.5 hPa OSO 4.2 km/h 7.6 km/h 64.2% 0.0 mm
13:54 20.8 °C 13.5 °C 1020.5 hPa SSE 4.7 km/h 10 km/h 63% 0.0 mm
13:59 21 °C 13.7 °C 1020.2 hPa Sur 4.7 km/h 8.7 km/h 62.8% 0.0 mm
14:04 21.2 °C 13.5 °C 1020.2 hPa OSO 4.7 km/h 9.3 km/h 61.6% 0.0 mm
14:09 21.2 °C 13.4 °C 1020.2 hPa SSO 4.7 km/h 9.3 km/h 61% 0.0 mm
14:14 21.3 °C 13.5 °C 1019.9 hPa ESE 4.7 km/h 9.5 km/h 60.8% 0.0 mm
14:19 21.4 °C 13.3 °C 1019.9 hPa ENE 4.8 km/h 9.3 km/h 60% 0.0 mm
14:24 21.3 °C 13.4 °C 1019.9 hPa NNE 5 km/h 7.4 km/h 60.8% 0.0 mm
14:29 21.5 °C 13.6 °C 1019.7 hPa Oeste 4.9 km/h 7.4 km/h 60.6% 0.0 mm
14:34 21.7 °C 13.6 °C 1019.7 hPa SE 4.7 km/h 8.7 km/h 60.1% 0.0 mm
14:39 21.9 °C 13.8 °C 1019.7 hPa NE 4.7 km/h 9.3 km/h 60% 0.0 mm
14:44 21.9 °C 13.8 °C 1019.4 hPa NE 4.7 km/h 10 km/h 60% 0.0 mm
14:49 21.9 °C 13.8 °C 1019.4 hPa SE 4.8 km/h 9.5 km/h 60% 0.0 mm
14:54 22.1 °C 13.9 °C 1019.4 hPa SSE 5 km/h 8.4 km/h 59.7% 0.0 mm
14:59 22.2 °C 13.8 °C 1019.1 hPa SSO 4.9 km/h 9.3 km/h 59% 0.0 mm
15:04 22.3 °C 13.7 °C 1019.1 hPa North 4.7 km/h 10 km/h 58.3% 0.0 mm
15:09 22.3 °C 13.6 °C 1019.1 hPa NE 5.1 km/h 11.9 km/h 58.1% 0.0 mm
15:14 22.2 °C 13.6 °C 1018.9 hPa ENE 5.8 km/h 11.1 km/h 58.3% 0.0 mm
15:19 22.2 °C 13.6 °C 1018.9 hPa NNE 6 km/h 11.1 km/h 58.3% 0.0 mm
15:24 22.3 °C 13.6 °C 1018.9 hPa NO 6.4 km/h 11.1 km/h 58.1% 0.0 mm
15:29 22.3 °C 13.7 °C 1018.7 hPa NNE 5.9 km/h 11.1 km/h 58.3% 0.0 mm
15:34 22.3 °C 13.5 °C 1018.7 hPa NNO 5 km/h 7.4 km/h 57.6% 0.0 mm
15:39 22.6 °C 13.8 °C 1018.7 hPa NNE 5 km/h 11.1 km/h 57.6% 0.0 mm
15:44 22.6 °C 13.7 °C 1018.5 hPa NNO 5 km/h 10 km/h 57.2% 0.0 mm
15:49 22.7 °C 13.8 °C 1018.5 hPa NNE 5.3 km/h 10 km/h 57.1% 0.0 mm
15:54 22.8 °C 13.6 °C 1018.5 hPa North 5.8 km/h 11.1 km/h 56% 0.0 mm
15:59 22.8 °C 13.5 °C 1018.4 hPa NNO 5.5 km/h 9.5 km/h 55.5% 0.0 mm
16:04 22.9 °C 12.7 °C 1018.4 hPa NNE 5 km/h 9.5 km/h 52.6% 0.0 mm
16:09 23 °C 12.4 °C 1018.4 hPa NNE 5 km/h 11.1 km/h 51% 0.0 mm
16:14 23.1 °C 12.1 °C 1018.2 hPa North 5 km/h 10 km/h 49.9% 0.0 mm
16:19 23.2 °C 12.3 °C 1018.2 hPa North 4.9 km/h 11.9 km/h 50.5% 0.0 mm
16:24 23.2 °C 12.4 °C 1018.2 hPa NE 4.7 km/h 14.8 km/h 50.6% 0.0 mm
16:29 23.1 °C 12.4 °C 1018.1 hPa NE 6 km/h 14.8 km/h 51.1% 0.0 mm
16:34 23.1 °C 12.4 °C 1018.1 hPa North 8.4 km/h 7.4 km/h 51% 0.0 mm
16:39 23.2 °C 12.2 °C 1018.1 hPa NE 7.1 km/h 13 km/h 50.1% 0.0 mm
16:44 23.3 °C 12.3 °C 1018.0 hPa NE 5 km/h 14.8 km/h 50% 0.0 mm
16:49 23.2 °C 12.2 °C 1018.0 hPa NE 6.4 km/h 13 km/h 50% 0.0 mm
16:54 23.1 °C 12.2 °C 1018.0 hPa NNE 8.7 km/h 11.1 km/h 50.3% 0.0 mm
16:59 23.2 °C 12.1 °C 1017.8 hPa NNE 7.5 km/h 11.9 km/h 49.7% 0.0 mm
17:04 23.2 °C 12.1 °C 1017.8 hPa NE 5.8 km/h 13.7 km/h 49.8% 0.0 mm
17:09 23.2 °C 12.5 °C 1017.8 hPa NE 6.8 km/h 14.8 km/h 51% 0.0 mm
17:14 23.2 °C 12.7 °C 1017.7 hPa NE 8.4 km/h 13 km/h 51.5% 0.0 mm
17:19 23.2 °C 12.6 °C 1017.7 hPa NE 8.4 km/h 14.8 km/h 51.4% 0.0 mm
17:24 23.1 °C 12.4 °C 1017.7 hPa NNE 8.4 km/h 14 km/h 51% 0.0 mm
17:29 23 °C 12.5 °C 1017.6 hPa NE 8.5 km/h 14.8 km/h 51.5% 0.0 mm
17:34 23.1 °C 12.7 °C 1017.6 hPa NNE 8.7 km/h 14.8 km/h 52% 0.0 mm
17:39 23.1 °C 12.7 °C 1017.7 hPa NNE 8.7 km/h 14.8 km/h 52% 0.0 mm
17:44 23.1 °C 12.9 °C 1017.7 hPa NE 8.7 km/h 13 km/h 52.9% 0.0 mm
17:49 23.1 °C 13.2 °C 1017.7 hPa NNE 8.3 km/h 11.1 km/h 53.8% 0.0 mm
17:54 23.1 °C 13.3 °C 1017.7 hPa NNE 7.6 km/h 14.8 km/h 54.4% 0.0 mm
17:59 22.9 °C 13.5 °C 1017.6 hPa NNE 7.9 km/h 13 km/h 55.4% 0.0 mm
18:04 22.9 °C 13.4 °C 1017.6 hPa ESE 8.4 km/h 20.4 km/h 55.1% 0.0 mm
18:09 22.8 °C 13.3 °C 1017.7 hPa ESE 9 km/h 25.9 km/h 55% 0.0 mm
18:14 22.6 °C 13 °C 1017.7 hPa SE 10 km/h 24.1 km/h 55% 0.0 mm
18:19 22.4 °C 12.9 °C 1017.7 hPa ESE 11.3 km/h 18.5 km/h 55.2% 0.0 mm
18:24 22.3 °C 12.9 °C 1017.9 hPa ESE 14 km/h 14.8 km/h 55.2% 0.0 mm
18:29 22.3 °C 12.8 °C 1017.9 hPa SE 12.6 km/h 20.4 km/h 55% 0.0 mm
18:34 22.1 °C 12.6 °C 1017.9 hPa ESE 10 km/h 22.2 km/h 55% 0.0 mm
18:39 22 °C 12.5 °C 1018.0 hPa ESE 10.6 km/h 20.9 km/h 55% 0.0 mm
18:44 21.8 °C 12.4 °C 1018.0 hPa ESE 11.9 km/h 22.2 km/h 55% 0.0 mm
18:49 21.7 °C 12.5 °C 1018.0 hPa SE 11.9 km/h 20.4 km/h 55.9% 0.0 mm
18:54 21.6 °C 12.6 °C 1018.0 hPa ESE 11.9 km/h 18.5 km/h 56.5% 0.0 mm
18:59 21.4 °C 12.6 °C 1018.0 hPa ESE 11.1 km/h 16.7 km/h 57.2% 0.0 mm
19:04 21.3 °C 12.7 °C 1018.0 hPa ESE 10 km/h 14.8 km/h 58% 0.0 mm
19:09 21.2 °C 12.8 °C 1018.0 hPa ESE 9.4 km/h 14.8 km/h 58.9% 0.0 mm
19:14 21 °C 12.9 °C 1018.0 hPa ESE 8.4 km/h 16.1 km/h 59.9% 0.0 mm
19:19 20.8 °C 13 °C 1018.0 hPa ESE 8.8 km/h 16.7 km/h 60.8% 0.0 mm
19:24 20.7 °C 12.9 °C 1018.1 hPa ESE 9.5 km/h 17.2 km/h 61.3% 0.0 mm
19:29 20.5 °C 13 °C 1018.1 hPa ESE 9.2 km/h 14.8 km/h 62% 0.0 mm
19:34 20.4 °C 12.9 °C 1018.1 hPa ESE 8.7 km/h 14.8 km/h 62% 0.0 mm
19:39 20.3 °C 12.8 °C 1018.3 hPa ESE 8 km/h 11.1 km/h 62% 0.0 mm
19:44 20.2 °C 12.7 °C 1018.3 hPa Este 6.9 km/h 11.9 km/h 62.3% 0.0 mm
19:49 20.1 °C 12.8 °C 1018.3 hPa NE 6.5 km/h 9.3 km/h 62.6% 0.0 mm
19:54 20 °C 12.7 °C 1018.6 hPa NE 5.8 km/h 9.3 km/h 63% 0.0 mm
19:59 19.9 °C 12.7 °C 1018.6 hPa NNE 5.5 km/h 7.4 km/h 63.1% 0.0 mm
20:04 19.8 °C 12.8 °C 1018.6 hPa NE 5 km/h 9.5 km/h 64% 0.0 mm
20:09 19.7 °C 12.9 °C 1018.9 hPa NE 5 km/h 9.5 km/h 64.8% 0.0 mm
20:14 19.4 °C 12.9 °C 1018.9 hPa NE 5 km/h 11.1 km/h 65.8% 0.0 mm
20:19 19.3 °C 12.8 °C 1018.9 hPa NE 5.3 km/h 13 km/h 66.1% 0.0 mm
20:24 19.3 °C 13 °C 1019.1 hPa ENE 5.8 km/h 13 km/h 67% 0.0 mm
20:29 19.2 °C 12.9 °C 1019.1 hPa Este 6.4 km/h 13 km/h 67% 0.0 mm
20:34 19.2 °C 12.9 °C 1019.1 hPa ENE 7.6 km/h 9.5 km/h 67% 0.0 mm
20:39 19.1 °C 13.1 °C 1019.1 hPa ENE 6.9 km/h 14 km/h 67.9% 0.0 mm
20:44 19.1 °C 13.1 °C 1019.1 hPa ENE 5.8 km/h 14.8 km/h 68.1% 0.0 mm
20:49 19 °C 13.2 °C 1019.1 hPa Este 6 km/h 8.4 km/h 69% 0.0 mm
20:54 19 °C 13.2 °C 1019.3 hPa NNE 6.4 km/h 6.4 km/h 69% 0.0 mm
20:59 18.9 °C 13.3 °C 1019.3 hPa NNE 5.2 km/h 7.6 km/h 69.9% 0.0 mm
21:04 18.7 °C 13.2 °C 1019.3 hPa North 3.2 km/h 7.6 km/h 70.2% 0.0 mm
21:09 18.5 °C 13.2 °C 1019.3 hPa North 3.5 km/h 7.6 km/h 71.6% 0.0 mm
21:14 18.3 °C 13.3 °C 1019.3 hPa NNE 3.9 km/h 7.6 km/h 72.8% 0.0 mm
21:19 18.1 °C 13.4 °C 1019.3 hPa NNE 4.6 km/h 11.1 km/h 73.8% 0.0 mm
21:24 17.9 °C 13.3 °C 1019.4 hPa NNE 5.8 km/h 11.1 km/h 74.6% 0.0 mm
21:29 17.8 °C 13.4 °C 1019.4 hPa NE 6.4 km/h 11.1 km/h 75.2% 0.0 mm
21:34 17.7 °C 13.4 °C 1019.4 hPa NNE 7.6 km/h 11.1 km/h 76% 0.0 mm
21:39 17.6 °C 13.5 °C 1019.5 hPa NNE 7.2 km/h 9.3 km/h 76.9% 0.0 mm
21:44 17.4 °C 13.4 °C 1019.5 hPa North 6.4 km/h 8.4 km/h 77.5% 0.0 mm
21:49 17.4 °C 13.5 °C 1019.5 hPa NE 5.9 km/h 8.7 km/h 78% 0.0 mm
21:54 17.3 °C 13.6 °C 1019.6 hPa NNE 5 km/h 10 km/h 78.9% 0.0 mm
21:59 17.3 °C 13.6 °C 1019.6 hPa NE 5.3 km/h 13 km/h 79% 0.0 mm
22:04 17.4 °C 13.9 °C 1019.6 hPa NE 5.8 km/h 13 km/h 79.9% 0.0 mm
22:09 17.4 °C 13.9 °C 1019.8 hPa NNE 6.2 km/h 9.3 km/h 80% 0.0 mm
22:14 17.3 °C 13.8 °C 1019.8 hPa NE 6.9 km/h 10.3 km/h 80% 0.0 mm
22:19 17.2 °C 13.8 °C 1019.8 hPa NE 6.5 km/h 11.1 km/h 80% 0.0 mm
22:24 17.2 °C 13.8 °C 1019.8 hPa NE 5.8 km/h 11.1 km/h 80.3% 0.0 mm
22:29 17.1 °C 13.8 °C 1019.7 hPa NE 6.2 km/h 11.9 km/h 81% 0.0 mm
22:34 17 °C 13.7 °C 1019.7 hPa NE 6.9 km/h 11.1 km/h 81% 0.0 mm
22:39 16.9 °C 13.8 °C 1019.8 hPa NE 6.9 km/h 9.3 km/h 81.8% 0.0 mm
22:44 16.8 °C 13.7 °C 1019.8 hPa NE 6.9 km/h 9.3 km/h 82% 0.0 mm
22:49 16.8 °C 13.9 °C 1019.8 hPa NE 6.5 km/h 11.1 km/h 82.8% 0.0 mm
22:54 16.8 °C 13.9 °C 1020.0 hPa NE 5.8 km/h 7.4 km/h 83% 0.0 mm
22:59 16.8 °C 13.9 °C 1020.0 hPa ENE 4.8 km/h 5.6 km/h 83% 0.0 mm
23:04 16.8 °C 13.9 °C 1020.0 hPa ENE 3.2 km/h 5.8 km/h 83% 0.0 mm
23:09 16.7 °C 13.8 °C 1020.1 hPa ENE 3.2 km/h 5.6 km/h 83% 0.0 mm
23:14 16.7 °C 13.8 °C 1020.1 hPa ENE 3.2 km/h 4.7 km/h 83% 0.0 mm
23:19 16.6 °C 13.7 °C 1020.1 hPa ENE 3.1 km/h 4.7 km/h 83% 0.0 mm
23:24 16.6 °C 13.7 °C 1020.3 hPa ENE 2.9 km/h 3.9 km/h 83% 0.0 mm
23:29 16.5 °C 13.7 °C 1020.3 hPa ENE 1.8 km/h 4.7 km/h 83% 0.0 mm
23:34 16.4 °C 13.4 °C 1020.3 hPa Calm   5.8 km/h 82.2% 0.0 mm
23:39 16.3 °C 13.2 °C 1020.3 hPa ENE 1 km/h 5.6 km/h 82% 0.0 mm
23:44 16.3 °C 13.3 °C 1020.3 hPa ENE 2.9 km/h 3.9 km/h 82.3% 0.0 mm
23:49 16.3 °C 13.4 °C 1020.3 hPa ENE 2.7 km/h 5.8 km/h 83% 0.0 mm
23:54 16.3 °C 13.4 °C 1020.3 hPa ENE 2.3 km/h 5.8 km/h 83% 0.0 mm
23:59 16.2 °C 13.3 °C 1020.2 hPa ENE 2.6 km/h 4.7 km/h 83% 0.0 mm
Murcia-Puente Tocinos, Espa?a
Compliments of Weather Underground - 3 mb

La estación de MeteoMurcia.com, publica sus datos en los siguientes proyectos:

Weather Underground PWS IMURCIAP2 Meteoclimatic www.awekas.at

W3Counter
Web Analytics